Republica Dominicana

Metar

SADR31 MDSD 101900Z
METAR
   
METAR MDPP 101900Z 09014KT 9999 SCT022 SCT300 32/26 Q1014=
METAR MDST 101900Z 12011KT 9999 SCT028 34/21 Q1014=
METAR MDPC 101900Z 07010KT 9999 SCT025 30/23 Q1015=
METAR MDBH 101900Z 16014KT 9999 FEW020CB FEW022 32/25 Q1013 CB/S=
METAR MDJB 101900Z 36010KT 9999 SCT020 34/23 Q1014=
METAR MDSD 101900Z 15010KT 8000 VCSH SCT020 30/23 Q1013 RERA=
METAR MDLR 101900Z 04005KT 9999 FEW020CB SCT022 SCT070 33/25 Q1014
CB/NE/E/N=
METAR MDCY 101900Z 08015KT 9999 SCT020 SCT300 31/26 Q1015=
METAR MDAB 101900Z 09006KT 9999 BKN020 31/25 Q1015==




Tamaño letra

Contraste

Otros